sensor_id;sensor_type;location;lat;lon;timestamp;P1;durP1;ratioP1;P2;durP2;ratioP2
55987;SDS011;75964;50.930;4.514;2024-02-14T00:02:23;7.47;;;3.95;;
55987;SDS011;75964;50.930;4.514;2024-02-14T00:04:51;6.25;;;3.28;;
55987;SDS011;75964;50.930;4.514;2024-02-14T00:07:20;5.63;;;3.42;;
55987;SDS011;75964;50.930;4.514;2024-02-14T00:09:46;7.22;;;3.88;;
55987;SDS011;75964;50.930;4.514;2024-02-14T00:12:12;7.85;;;3.58;;
55987;SDS011;75964;50.930;4.514;2024-02-14T00:14:38;6.68;;;3.80;;
55987;SDS011;75964;50.930;4.514;2024-02-14T00:17:04;7.53;;;3.15;;
55987;SDS011;75964;50.930;4.514;2024-02-14T00:19:31;8.45;;;3.60;;
55987;SDS011;75964;50.930;4.514;2024-02-14T00:21:56;6.47;;;3.45;;
55987;SDS011;75964;50.930;4.514;2024-02-14T00:24:22;7.15;;;3.70;;
55987;SDS011;75964;50.930;4.514;2024-02-14T00:26:49;9.10;;;3.97;;
55987;SDS011;75964;50.930;4.514;2024-02-14T00:29:17;5.97;;;3.50;;
55987;SDS011;75964;50.930;4.514;2024-02-14T00:31:43;7.88;;;3.80;;
55987;SDS011;75964;50.930;4.514;2024-02-14T00:34:09;8.45;;;3.63;;
55987;SDS011;75964;50.930;4.514;2024-02-14T00:36:35;11.85;;;4.05;;
55987;SDS011;75964;50.930;4.514;2024-02-14T00:39:01;6.35;;;3.85;;
55987;SDS011;75964;50.930;4.514;2024-02-14T00:41:27;9.93;;;3.78;;
55987;SDS011;75964;50.930;4.514;2024-02-14T00:43:55;5.70;;;3.75;;
55987;SDS011;75964;50.930;4.514;2024-02-14T00:46:21;5.80;;;3.53;;
55987;SDS011;75964;50.930;4.514;2024-02-14T00:48:47;7.85;;;3.92;;
55987;SDS011;75964;50.930;4.514;2024-02-14T00:51:13;6.78;;;3.20;;
55987;SDS011;75964;50.930;4.514;2024-02-14T00:53:38;8.15;;;4.00;;
55987;SDS011;75964;50.930;4.514;2024-02-14T00:56:04;6.25;;;3.55;;
55987;SDS011;75964;50.930;4.514;2024-02-14T00:58:30;5.70;;;3.42;;
55987;SDS011;75964;50.930;4.514;2024-02-14T01:00:56;4.80;;;3.13;;
55987;SDS011;75964;50.930;4.514;2024-02-14T01:03:22;8.55;;;3.72;;
55987;SDS011;75964;50.930;4.514;2024-02-14T01:05:48;5.75;;;3.35;;
55987;SDS011;75964;50.930;4.514;2024-02-14T01:08:14;9.32;;;3.70;;
55987;SDS011;75964;50.930;4.514;2024-02-14T01:10:40;7.97;;;3.20;;
55987;SDS011;75964;50.930;4.514;2024-02-14T01:13:06;7.85;;;3.80;;
55987;SDS011;75964;50.930;4.514;2024-02-14T01:15:32;7.82;;;3.35;;
55987;SDS011;75964;50.930;4.514;2024-02-14T01:17:58;6.07;;;4.03;;
55987;SDS011;75964;50.930;4.514;2024-02-14T01:20:25;7.05;;;3.60;;
55987;SDS011;75964;50.930;4.514;2024-02-14T01:22:50;11.13;;;4.10;;
55987;SDS011;75964;50.930;4.514;2024-02-14T01:25:16;8.23;;;4.40;;
55987;SDS011;75964;50.930;4.514;2024-02-14T01:27:42;9.25;;;4.00;;
55987;SDS011;75964;50.930;4.514;2024-02-14T01:30:08;6.00;;;3.70;;
55987;SDS011;75964;50.930;4.514;2024-02-14T01:32:34;11.60;;;4.57;;
55987;SDS011;75964;50.930;4.514;2024-02-14T01:35:00;9.63;;;4.43;;
55987;SDS011;75964;50.930;4.514;2024-02-14T01:37:26;10.88;;;4.47;;
55987;SDS011;75964;50.930;4.514;2024-02-14T01:39:54;10.18;;;4.88;;
55987;SDS011;75964;50.930;4.514;2024-02-14T01:42:20;7.30;;;4.63;;
55987;SDS011;75964;50.930;4.514;2024-02-14T01:44:45;10.10;;;4.68;;
55987;SDS011;75964;50.930;4.514;2024-02-14T01:47:11;7.75;;;4.38;;
55987;SDS011;75964;50.930;4.514;2024-02-14T01:49:37;7.22;;;4.13;;
55987;SDS011;75964;50.930;4.514;2024-02-14T01:52:04;8.05;;;4.30;;
55987;SDS011;75964;50.930;4.514;2024-02-14T01:54:30;7.82;;;4.40;;
55987;SDS011;75964;50.930;4.514;2024-02-14T01:56:57;7.32;;;4.03;;
55987;SDS011;75964;50.930;4.514;2024-02-14T01:59:26;9.82;;;4.53;;
55987;SDS011;75964;50.930;4.514;2024-02-14T02:01:52;10.13;;;5.00;;
55987;SDS011;75964;50.930;4.514;2024-02-14T02:04:18;8.90;;;5.38;;
55987;SDS011;75964;50.930;4.514;2024-02-14T02:06:44;10.02;;;5.10;;
55987;SDS011;75964;50.930;4.514;2024-02-14T02:09:10;9.50;;;5.22;;
55987;SDS011;75964;50.930;4.514;2024-02-14T02:11:51;10.15;;;5.18;;
55987;SDS011;75964;50.930;4.514;2024-02-14T02:14:25;11.77;;;4.53;;
55987;SDS011;75964;50.930;4.514;2024-02-14T02:16:51;8.20;;;4.93;;
55987;SDS011;75964;50.930;4.514;2024-02-14T02:19:18;8.90;;;5.53;;
55987;SDS011;75964;50.930;4.514;2024-02-14T02:21:44;8.90;;;5.28;;
55987;SDS011;75964;50.930;4.514;2024-02-14T02:24:12;10.10;;;5.72;;
55987;SDS011;75964;50.930;4.514;2024-02-14T02:26:38;12.82;;;5.30;;
55987;SDS011;75964;50.930;4.514;2024-02-14T02:29:04;10.13;;;5.40;;
55987;SDS011;75964;50.930;4.514;2024-02-14T02:31:31;9.98;;;5.38;;
55987;SDS011;75964;50.930;4.514;2024-02-14T02:33:56;8.63;;;5.57;;
55987;SDS011;75964;50.930;4.514;2024-02-14T02:36:22;11.52;;;5.30;;
55987;SDS011;75964;50.930;4.514;2024-02-14T02:38:49;9.98;;;4.82;;
55987;SDS011;75964;50.930;4.514;2024-02-14T02:41:15;9.45;;;5.15;;
55987;SDS011;75964;50.930;4.514;2024-02-14T02:43:41;12.98;;;5.47;;
55987;SDS011;75964;50.930;4.514;2024-02-14T02:46:08;7.95;;;4.80;;
55987;SDS011;75964;50.930;4.514;2024-02-14T02:48:34;8.63;;;5.65;;
55987;SDS011;75964;50.930;4.514;2024-02-14T02:51:01;8.57;;;5.47;;
55987;SDS011;75964;50.930;4.514;2024-02-14T02:53:26;9.35;;;5.38;;
55987;SDS011;75964;50.930;4.514;2024-02-14T02:55:52;10.18;;;5.43;;
55987;SDS011;75964;50.930;4.514;2024-02-14T02:58:19;10.70;;;5.03;;
55987;SDS011;75964;50.930;4.514;2024-02-14T03:00:46;12.90;;;5.90;;
55987;SDS011;75964;50.930;4.514;2024-02-14T03:03:14;10.27;;;5.90;;
55987;SDS011;75964;50.930;4.514;2024-02-14T03:05:41;12.68;;;6.38;;
55987;SDS011;75964;50.930;4.514;2024-02-14T03:08:09;16.60;;;6.75;;
55987;SDS011;75964;50.930;4.514;2024-02-14T03:13:05;14.82;;;6.80;;
55987;SDS011;75964;50.930;4.514;2024-02-14T03:15:33;10.40;;;6.03;;
55987;SDS011;75964;50.930;4.514;2024-02-14T03:18:00;11.55;;;7.32;;
55987;SDS011;75964;50.930;4.514;2024-02-14T03:20:26;15.35;;;7.82;;
55987;SDS011;75964;50.930;4.514;2024-02-14T03:22:54;12.68;;;7.35;;
55987;SDS011;75964;50.930;4.514;2024-02-14T03:25:19;11.73;;;6.63;;
55987;SDS011;75964;50.930;4.514;2024-02-14T03:27:45;13.88;;;7.38;;
55987;SDS011;75964;50.930;4.514;2024-02-14T03:30:14;12.73;;;8.07;;
55987;SDS011;75964;50.930;4.514;2024-02-14T03:32:41;16.95;;;8.00;;
55987;SDS011;75964;50.930;4.514;2024-02-14T03:35:08;17.90;;;9.10;;
55987;SDS011;75964;50.930;4.514;2024-02-14T03:37:35;17.20;;;9.30;;
55987;SDS011;75964;50.930;4.514;2024-02-14T03:40:04;18.40;;;9.60;;
55987;SDS011;75964;50.930;4.514;2024-02-14T03:42:31;15.25;;;9.23;;
55987;SDS011;75964;50.930;4.514;2024-02-14T03:44:57;19.63;;;10.18;;
55987;SDS011;75964;50.930;4.514;2024-02-14T03:47:30;19.58;;;9.80;;
55987;SDS011;75964;50.930;4.514;2024-02-14T03:49:57;20.80;;;9.70;;
55987;SDS011;75964;50.930;4.514;2024-02-14T03:52:27;16.17;;;9.13;;
55987;SDS011;75964;50.930;4.514;2024-02-14T03:54:53;15.77;;;9.35;;
55987;SDS011;75964;50.930;4.514;2024-02-14T03:57:19;14.68;;;9.68;;
55987;SDS011;75964;50.930;4.514;2024-02-14T03:59:44;17.60;;;10.05;;
55987;SDS011;75964;50.930;4.514;2024-02-14T04:02:11;18.92;;;9.07;;
55987;SDS011;75964;50.930;4.514;2024-02-14T04:04:37;16.40;;;8.93;;
55987;SDS011;75964;50.930;4.514;2024-02-14T04:07:04;21.98;;;9.55;;
55987;SDS011;75964;50.930;4.514;2024-02-14T04:09:32;17.17;;;9.07;;
55987;SDS011;75964;50.930;4.514;2024-02-14T04:11:58;12.35;;;8.73;;
55987;SDS011;75964;50.930;4.514;2024-02-14T04:14:24;16.35;;;9.35;;
55987;SDS011;75964;50.930;4.514;2024-02-14T04:16:50;17.42;;;9.20;;
55987;SDS011;75964;50.930;4.514;2024-02-14T04:19:16;15.93;;;9.35;;
55987;SDS011;75964;50.930;4.514;2024-02-14T04:21:42;18.95;;;9.60;;
55987;SDS011;75964;50.930;4.514;2024-02-14T04:24:08;16.13;;;9.70;;
55987;SDS011;75964;50.930;4.514;2024-02-14T04:26:34;12.57;;;8.35;;
55987;SDS011;75964;50.930;4.514;2024-02-14T04:29:00;16.67;;;9.55;;
55987;SDS011;75964;50.930;4.514;2024-02-14T04:31:26;13.23;;;8.93;;
55987;SDS011;75964;50.930;4.514;2024-02-14T04:33:52;16.05;;;8.73;;
55987;SDS011;75964;50.930;4.514;2024-02-14T04:36:19;15.15;;;9.07;;
55987;SDS011;75964;50.930;4.514;2024-02-14T04:38:46;12.73;;;8.38;;
55987;SDS011;75964;50.930;4.514;2024-02-14T04:41:12;16.08;;;8.40;;
55987;SDS011;75964;50.930;4.514;2024-02-14T04:43:39;13.23;;;8.10;;
55987;SDS011;75964;50.930;4.514;2024-02-14T04:46:05;17.05;;;8.73;;
55987;SDS011;75964;50.930;4.514;2024-02-14T04:48:32;13.95;;;8.23;;
55987;SDS011;75964;50.930;4.514;2024-02-14T04:50:58;17.40;;;9.18;;
55987;SDS011;75964;50.930;4.514;2024-02-14T04:53:24;17.95;;;8.65;;
55987;SDS011;75964;50.930;4.514;2024-02-14T04:55:50;14.27;;;8.48;;
55987;SDS011;75964;50.930;4.514;2024-02-14T04:58:15;16.90;;;9.07;;
55987;SDS011;75964;50.930;4.514;2024-02-14T05:00:41;12.75;;;7.68;;
55987;SDS011;75964;50.930;4.514;2024-02-14T05:03:07;11.32;;;8.00;;
55987;SDS011;75964;50.930;4.514;2024-02-14T05:05:35;13.27;;;7.90;;
55987;SDS011;75964;50.930;4.514;2024-02-14T05:08:01;12.20;;;8.75;;
55987;SDS011;75964;50.930;4.514;2024-02-14T05:10:29;18.87;;;8.73;;
55987;SDS011;75964;50.930;4.514;2024-02-14T05:12:58;18.08;;;9.85;;
55987;SDS011;75964;50.930;4.514;2024-02-14T05:15:24;20.40;;;10.52;;
55987;SDS011;75964;50.930;4.514;2024-02-14T05:17:50;18.17;;;10.50;;
55987;SDS011;75964;50.930;4.514;2024-02-14T05:20:16;15.38;;;9.88;;
55987;SDS011;75964;50.930;4.514;2024-02-14T05:22:42;17.17;;;9.80;;
55987;SDS011;75964;50.930;4.514;2024-02-14T05:25:08;16.73;;;9.75;;
55987;SDS011;75964;50.930;4.514;2024-02-14T05:27:34;21.40;;;10.63;;
55987;SDS011;75964;50.930;4.514;2024-02-14T05:30:03;15.73;;;9.82;;
55987;SDS011;75964;50.930;4.514;2024-02-14T05:32:34;15.90;;;8.77;;
55987;SDS011;75964;50.930;4.514;2024-02-14T05:35:00;15.07;;;8.98;;
55987;SDS011;75964;50.930;4.514;2024-02-14T05:37:26;16.65;;;9.25;;
55987;SDS011;75964;50.930;4.514;2024-02-14T05:39:55;15.88;;;9.60;;
55987;SDS011;75964;50.930;4.514;2024-02-14T05:42:21;16.90;;;9.48;;
55987;SDS011;75964;50.930;4.514;2024-02-14T05:44:47;20.45;;;8.85;;
55987;SDS011;75964;50.930;4.514;2024-02-14T05:47:13;15.02;;;8.93;;
55987;SDS011;75964;50.930;4.514;2024-02-14T05:49:39;13.95;;;8.73;;
55987;SDS011;75964;50.930;4.514;2024-02-14T05:52:06;13.75;;;8.55;;
55987;SDS011;75964;50.930;4.514;2024-02-14T05:54:33;16.08;;;8.70;;
55987;SDS011;75964;50.930;4.514;2024-02-14T05:56:59;15.02;;;7.47;;
55987;SDS011;75964;50.930;4.514;2024-02-14T05:59:26;16.02;;;8.65;;
55987;SDS011;75964;50.930;4.514;2024-02-14T06:01:51;17.38;;;8.13;;
55987;SDS011;75964;50.930;4.514;2024-02-14T06:04:18;12.48;;;7.85;;
55987;SDS011;75964;50.930;4.514;2024-02-14T06:06:43;14.20;;;9.02;;
55987;SDS011;75964;50.930;4.514;2024-02-14T06:09:09;15.75;;;8.00;;
55987;SDS011;75964;50.930;4.514;2024-02-14T06:11:36;15.82;;;7.50;;
55987;SDS011;75964;50.930;4.514;2024-02-14T06:14:08;16.08;;;8.80;;
55987;SDS011;75964;50.930;4.514;2024-02-14T06:16:34;15.32;;;8.65;;
55987;SDS011;75964;50.930;4.514;2024-02-14T06:19:00;19.70;;;9.05;;
55987;SDS011;75964;50.930;4.514;2024-02-14T06:21:29;12.67;;;8.90;;
55987;SDS011;75964;50.930;4.514;2024-02-14T06:23:55;17.65;;;8.95;;
55987;SDS011;75964;50.930;4.514;2024-02-14T06:26:23;14.10;;;8.45;;
55987;SDS011;75964;50.930;4.514;2024-02-14T06:28:49;14.43;;;9.07;;
55987;SDS011;75964;50.930;4.514;2024-02-14T06:31:19;15.35;;;8.57;;
55987;SDS011;75964;50.930;4.514;2024-02-14T06:33:48;22.50;;;9.57;;
55987;SDS011;75964;50.930;4.514;2024-02-14T06:36:13;13.73;;;7.93;;
55987;SDS011;75964;50.930;4.514;2024-02-14T06:38:39;17.55;;;9.13;;
55987;SDS011;75964;50.930;4.514;2024-02-14T06:41:05;16.95;;;8.65;;
55987;SDS011;75964;50.930;4.514;2024-02-14T06:43:31;16.85;;;8.63;;
55987;SDS011;75964;50.930;4.514;2024-02-14T06:45:57;14.52;;;8.13;;
55987;SDS011;75964;50.930;4.514;2024-02-14T06:48:23;18.75;;;9.02;;
55987;SDS011;75964;50.930;4.514;2024-02-14T06:50:52;20.60;;;9.57;;
55987;SDS011;75964;50.930;4.514;2024-02-14T06:53:18;14.37;;;8.70;;
55987;SDS011;75964;50.930;4.514;2024-02-14T06:55:44;16.60;;;8.75;;
55987;SDS011;75964;50.930;4.514;2024-02-14T06:58:09;21.38;;;9.40;;
55987;SDS011;75964;50.930;4.514;2024-02-14T07:00:35;16.63;;;8.75;;
55987;SDS011;75964;50.930;4.514;2024-02-14T07:03:01;13.95;;;8.57;;
55987;SDS011;75964;50.930;4.514;2024-02-14T07:05:27;20.67;;;9.10;;
55987;SDS011;75964;50.930;4.514;2024-02-14T07:07:54;20.17;;;9.40;;
55987;SDS011;75964;50.930;4.514;2024-02-14T07:10:20;17.17;;;9.25;;
55987;SDS011;75964;50.930;4.514;2024-02-14T07:12:46;18.23;;;9.35;;
55987;SDS011;75964;50.930;4.514;2024-02-14T07:15:11;15.32;;;8.85;;
55987;SDS011;75964;50.930;4.514;2024-02-14T07:17:37;15.52;;;9.82;;
55987;SDS011;75964;50.930;4.514;2024-02-14T07:20:06;19.42;;;8.15;;
55987;SDS011;75964;50.930;4.514;2024-02-14T07:22:34;14.70;;;8.43;;
55987;SDS011;75964;50.930;4.514;2024-02-14T07:25:00;16.42;;;9.05;;
55987;SDS011;75964;50.930;4.514;2024-02-14T07:27:26;17.85;;;8.85;;
55987;SDS011;75964;50.930;4.514;2024-02-14T07:29:55;17.75;;;8.32;;
55987;SDS011;75964;50.930;4.514;2024-02-14T07:32:21;18.88;;;9.15;;
55987;SDS011;75964;50.930;4.514;2024-02-14T07:34:47;18.20;;;9.00;;
55987;SDS011;75964;50.930;4.514;2024-02-14T07:37:12;17.55;;;9.35;;
55987;SDS011;75964;50.930;4.514;2024-02-14T07:39:41;16.33;;;8.35;;
55987;SDS011;75964;50.930;4.514;2024-02-14T07:42:07;18.17;;;8.73;;
55987;SDS011;75964;50.930;4.514;2024-02-14T07:44:33;19.65;;;8.60;;
55987;SDS011;75964;50.930;4.514;2024-02-14T07:46:58;16.95;;;9.02;;
55987;SDS011;75964;50.930;4.514;2024-02-14T07:49:24;16.52;;;8.18;;
55987;SDS011;75964;50.930;4.514;2024-02-14T07:51:49;15.55;;;8.23;;
55987;SDS011;75964;50.930;4.514;2024-02-14T07:54:15;20.23;;;8.38;;
55987;SDS011;75964;50.930;4.514;2024-02-14T07:56:41;18.40;;;7.95;;
55987;SDS011;75964;50.930;4.514;2024-02-14T07:59:06;14.65;;;8.32;;
55987;SDS011;75964;50.930;4.514;2024-02-14T08:01:32;17.45;;;8.38;;
55987;SDS011;75964;50.930;4.514;2024-02-14T08:03:58;18.88;;;8.40;;
55987;SDS011;75964;50.930;4.514;2024-02-14T08:06:24;14.57;;;9.05;;
55987;SDS011;75964;50.930;4.514;2024-02-14T08:08:49;18.45;;;8.77;;
55987;SDS011;75964;50.930;4.514;2024-02-14T08:11:19;17.90;;;8.77;;
55987;SDS011;75964;50.930;4.514;2024-02-14T08:13:45;18.95;;;9.20;;
55987;SDS011;75964;50.930;4.514;2024-02-14T08:16:11;19.70;;;9.60;;
55987;SDS011;75964;50.930;4.514;2024-02-14T08:18:37;22.25;;;9.00;;
55987;SDS011;75964;50.930;4.514;2024-02-14T08:21:04;14.48;;;8.35;;
55987;SDS011;75964;50.930;4.514;2024-02-14T08:23:31;18.80;;;8.23;;
55987;SDS011;75964;50.930;4.514;2024-02-14T08:25:57;15.23;;;8.35;;
55987;SDS011;75964;50.930;4.514;2024-02-14T08:28:22;17.92;;;8.30;;
55987;SDS011;75964;50.930;4.514;2024-02-14T08:30:48;17.85;;;9.38;;
55987;SDS011;75964;50.930;4.514;2024-02-14T08:33:14;16.95;;;9.02;;
55987;SDS011;75964;50.930;4.514;2024-02-14T08:35:40;17.55;;;8.82;;
55987;SDS011;75964;50.930;4.514;2024-02-14T08:38:05;17.48;;;9.60;;
55987;SDS011;75964;50.930;4.514;2024-02-14T08:40:31;17.95;;;10.10;;
55987;SDS011;75964;50.930;4.514;2024-02-14T08:42:57;18.00;;;10.20;;
55987;SDS011;75964;50.930;4.514;2024-02-14T08:45:24;18.23;;;11.05;;
55987;SDS011;75964;50.930;4.514;2024-02-14T08:47:50;21.52;;;10.15;;
55987;SDS011;75964;50.930;4.514;2024-02-14T08:50:16;18.63;;;10.13;;
55987;SDS011;75964;50.930;4.514;2024-02-14T08:52:42;19.30;;;9.70;;
55987;SDS011;75964;50.930;4.514;2024-02-14T08:55:08;19.05;;;9.93;;
55987;SDS011;75964;50.930;4.514;2024-02-14T08:57:39;16.70;;;9.88;;
55987;SDS011;75964;50.930;4.514;2024-02-14T09:00:06;16.48;;;9.32;;
55987;SDS011;75964;50.930;4.514;2024-02-14T09:02:32;15.43;;;9.93;;
55987;SDS011;75964;50.930;4.514;2024-02-14T09:04:59;14.85;;;9.30;;
55987;SDS011;75964;50.930;4.514;2024-02-14T09:07:26;18.50;;;9.65;;
55987;SDS011;75964;50.930;4.514;2024-02-14T09:09:52;19.27;;;9.75;;
55987;SDS011;75964;50.930;4.514;2024-02-14T09:12:18;15.05;;;9.23;;
55987;SDS011;75964;50.930;4.514;2024-02-14T09:14:44;17.45;;;9.95;;
55987;SDS011;75964;50.930;4.514;2024-02-14T09:17:09;19.02;;;10.57;;
55987;SDS011;75964;50.930;4.514;2024-02-14T09:19:35;18.23;;;10.30;;
55987;SDS011;75964;50.930;4.514;2024-02-14T09:22:01;15.95;;;10.50;;
55987;SDS011;75964;50.930;4.514;2024-02-14T09:26:57;22.73;;;11.07;;
55987;SDS011;75964;50.930;4.514;2024-02-14T09:29:23;20.90;;;10.75;;
55987;SDS011;75964;50.930;4.514;2024-02-14T09:31:50;18.23;;;9.85;;
55987;SDS011;75964;50.930;4.514;2024-02-14T09:34:16;18.30;;;10.23;;
55987;SDS011;75964;50.930;4.514;2024-02-14T09:36:44;17.20;;;10.25;;
55987;SDS011;75964;50.930;4.514;2024-02-14T09:39:12;16.60;;;10.23;;
55987;SDS011;75964;50.930;4.514;2024-02-14T09:41:42;17.52;;;10.85;;
55987;SDS011;75964;50.930;4.514;2024-02-14T09:44:12;20.35;;;10.63;;
55987;SDS011;75964;50.930;4.514;2024-02-14T09:46:38;17.23;;;10.20;;
55987;SDS011;75964;50.930;4.514;2024-02-14T09:49:05;18.40;;;10.77;;
55987;SDS011;75964;50.930;4.514;2024-02-14T09:51:31;16.58;;;10.70;;
55987;SDS011;75964;50.930;4.514;2024-02-14T09:53:58;18.30;;;11.63;;
55987;SDS011;75964;50.930;4.514;2024-02-14T09:56:25;15.90;;;10.90;;
55987;SDS011;75964;50.930;4.514;2024-02-14T09:58:52;19.38;;;11.02;;
55987;SDS011;75964;50.930;4.514;2024-02-14T10:01:22;16.50;;;10.85;;
55987;SDS011;75964;50.930;4.514;2024-02-14T10:03:49;16.00;;;11.02;;
55987;SDS011;75964;50.930;4.514;2024-02-14T10:06:16;18.45;;;10.45;;
55987;SDS011;75964;50.930;4.514;2024-02-14T10:08:44;19.75;;;10.82;;
55987;SDS011;75964;50.930;4.514;2024-02-14T10:11:10;16.42;;;10.52;;
55987;SDS011;75964;50.930;4.514;2024-02-14T10:13:36;13.40;;;9.88;;
55987;SDS011;75964;50.930;4.514;2024-02-14T10:16:01;13.10;;;9.35;;
55987;SDS011;75964;50.930;4.514;2024-02-14T10:18:28;10.45;;;8.00;;
55987;SDS011;75964;50.930;4.514;2024-02-14T10:20:57;10.85;;;8.32;;
55987;SDS011;75964;50.930;4.514;2024-02-14T10:23:23;12.97;;;8.50;;
55987;SDS011;75964;50.930;4.514;2024-02-14T10:25:52;10.60;;;7.78;;
55987;SDS011;75964;50.930;4.514;2024-02-14T10:28:21;13.07;;;7.93;;
55987;SDS011;75964;50.930;4.514;2024-02-14T10:30:47;10.52;;;6.70;;
55987;SDS011;75964;50.930;4.514;2024-02-14T10:33:14;9.02;;;6.50;;
55987;SDS011;75964;50.930;4.514;2024-02-14T10:38:10;14.23;;;6.43;;
55987;SDS011;75964;50.930;4.514;2024-02-14T10:40:36;12.38;;;6.75;;
55987;SDS011;75964;50.930;4.514;2024-02-14T10:43:08;10.43;;;5.50;;
55987;SDS011;75964;50.930;4.514;2024-02-14T10:45:35;5.75;;;4.82;;
55987;SDS011;75964;50.930;4.514;2024-02-14T10:48:01;10.77;;;5.20;;
55987;SDS011;75964;50.930;4.514;2024-02-14T10:50:32;8.15;;;4.65;;
55987;SDS011;75964;50.930;4.514;2024-02-14T10:53:00;7.15;;;4.40;;
55987;SDS011;75964;50.930;4.514;2024-02-14T10:55:29;6.15;;;4.05;;
55987;SDS011;75964;50.930;4.514;2024-02-14T10:57:57;8.40;;;4.07;;
55987;SDS011;75964;50.930;4.514;2024-02-14T11:00:23;8.55;;;3.70;;
55987;SDS011;75964;50.930;4.514;2024-02-14T11:02:49;5.68;;;3.40;;
55987;SDS011;75964;50.930;4.514;2024-02-14T11:05:20;4.97;;;3.20;;
55987;SDS011;75964;50.930;4.514;2024-02-14T11:07:49;6.80;;;3.10;;
55987;SDS011;75964;50.930;4.514;2024-02-14T11:10:18;4.03;;;3.10;;
55987;SDS011;75964;50.930;4.514;2024-02-14T11:12:46;5.90;;;2.75;;
55987;SDS011;75964;50.930;4.514;2024-02-14T11:15:21;5.78;;;2.40;;
55987;SDS011;75964;50.930;4.514;2024-02-14T11:17:47;3.78;;;2.72;;
55987;SDS011;75964;50.930;4.514;2024-02-14T11:20:14;4.07;;;2.55;;
55987;SDS011;75964;50.930;4.514;2024-02-14T11:22:49;4.38;;;2.38;;
55987;SDS011;75964;50.930;4.514;2024-02-14T11:25:21;8.13;;;2.97;;
55987;SDS011;75964;50.930;4.514;2024-02-14T11:28:14;3.95;;;2.50;;
55987;SDS011;75964;50.930;4.514;2024-02-14T11:30:46;2.72;;;2.17;;
55987;SDS011;75964;50.930;4.514;2024-02-14T11:35:45;4.68;;;2.50;;
55987;SDS011;75964;50.930;4.514;2024-02-14T11:38:14;4.82;;;2.47;;
55987;SDS011;75964;50.930;4.514;2024-02-14T11:40:40;3.22;;;2.17;;
55987;SDS011;75964;50.930;4.514;2024-02-14T11:43:13;5.85;;;2.67;;
55987;SDS011;75964;50.930;4.514;2024-02-14T11:45:44;6.05;;;2.78;;
55987;SDS011;75964;50.930;4.514;2024-02-14T11:48:11;3.97;;;2.83;;
55987;SDS011;75964;50.930;4.514;2024-02-14T11:50:38;5.03;;;3.05;;
55987;SDS011;75964;50.930;4.514;2024-02-14T11:53:06;5.28;;;2.95;;
55987;SDS011;75964;50.930;4.514;2024-02-14T11:55:36;3.53;;;2.50;;
55987;SDS011;75964;50.930;4.514;2024-02-14T11:58:02;4.72;;;3.50;;
55987;SDS011;75964;50.930;4.514;2024-02-14T12:00:45;6.10;;;3.58;;
55987;SDS011;75964;50.930;4.514;2024-02-14T12:03:18;5.93;;;3.22;;
55987;SDS011;75964;50.930;4.514;2024-02-14T12:05:46;5.30;;;3.47;;
55987;SDS011;75964;50.930;4.514;2024-02-14T12:08:13;6.43;;;3.80;;
55987;SDS011;75964;50.930;4.514;2024-02-14T12:10:41;8.32;;;3.75;;
55987;SDS011;75964;50.930;4.514;2024-02-14T12:13:11;7.72;;;3.38;;
55987;SDS011;75964;50.930;4.514;2024-02-14T12:15:39;11.00;;;3.88;;
55987;SDS011;75964;50.930;4.514;2024-02-14T12:18:06;9.48;;;4.55;;
55987;SDS011;75964;50.930;4.514;2024-02-14T12:20:39;9.40;;;4.25;;
55987;SDS011;75964;50.930;4.514;2024-02-14T12:23:05;10.27;;;4.63;;
55987;SDS011;75964;50.930;4.514;2024-02-14T12:25:31;9.18;;;4.35;;
55987;SDS011;75964;50.930;4.514;2024-02-14T12:27:57;9.98;;;4.45;;
55987;SDS011;75964;50.930;4.514;2024-02-14T12:30:46;9.60;;;4.80;;
55987;SDS011;75964;50.930;4.514;2024-02-14T12:33:17;13.57;;;5.10;;
55987;SDS011;75964;50.930;4.514;2024-02-14T12:35:46;9.93;;;5.28;;
55987;SDS011;75964;50.930;4.514;2024-02-14T12:38:13;7.28;;;4.82;;
55987;SDS011;75964;50.930;4.514;2024-02-14T12:40:41;8.82;;;4.78;;
55987;SDS011;75964;50.930;4.514;2024-02-14T12:43:14;10.35;;;5.28;;
55987;SDS011;75964;50.930;4.514;2024-02-14T12:45:43;8.38;;;4.85;;
55987;SDS011;75964;50.930;4.514;2024-02-14T12:48:09;8.70;;;5.03;;
55987;SDS011;75964;50.930;4.514;2024-02-14T12:50:37;13.13;;;5.80;;
55987;SDS011;75964;50.930;4.514;2024-02-14T12:53:12;13.05;;;6.70;;
55987;SDS011;75964;50.930;4.514;2024-02-14T12:55:37;13.48;;;5.47;;
55987;SDS011;75964;50.930;4.514;2024-02-14T12:58:03;12.07;;;6.15;;
55987;SDS011;75964;50.930;4.514;2024-02-14T13:00:30;10.80;;;5.80;;
55987;SDS011;75964;50.930;4.514;2024-02-14T13:02:57;14.85;;;6.35;;
55987;SDS011;75964;50.930;4.514;2024-02-14T13:05:23;14.38;;;6.25;;
55987;SDS011;75964;50.930;4.514;2024-02-14T13:07:50;11.65;;;5.47;;
55987;SDS011;75964;50.930;4.514;2024-02-14T13:10:16;14.80;;;7.05;;
55987;SDS011;75964;50.930;4.514;2024-02-14T13:12:43;15.43;;;7.00;;
55987;SDS011;75964;50.930;4.514;2024-02-14T13:15:10;15.32;;;6.55;;
55987;SDS011;75964;50.930;4.514;2024-02-14T13:17:36;13.70;;;7.00;;
55987;SDS011;75964;50.930;4.514;2024-02-14T13:20:02;10.73;;;6.32;;
55987;SDS011;75964;50.930;4.514;2024-02-14T13:22:28;15.85;;;8.43;;
55987;SDS011;75964;50.930;4.514;2024-02-14T13:24:54;12.85;;;6.57;;
55987;SDS011;75964;50.930;4.514;2024-02-14T13:27:21;11.63;;;5.65;;
55987;SDS011;75964;50.930;4.514;2024-02-14T13:29:48;8.63;;;5.07;;
55987;SDS011;75964;50.930;4.514;2024-02-14T13:32:14;9.77;;;6.13;;
55987;SDS011;75964;50.930;4.514;2024-02-14T13:34:40;8.73;;;5.32;;
55987;SDS011;75964;50.930;4.514;2024-02-14T13:37:06;14.20;;;5.15;;
55987;SDS011;75964;50.930;4.514;2024-02-14T13:39:32;16.33;;;5.80;;
55987;SDS011;75964;50.930;4.514;2024-02-14T13:41:58;11.05;;;5.20;;
55987;SDS011;75964;50.930;4.514;2024-02-14T13:44:25;11.18;;;5.25;;
55987;SDS011;75964;50.930;4.514;2024-02-14T13:46:50;7.65;;;4.40;;
55987;SDS011;75964;50.930;4.514;2024-02-14T13:49:17;8.45;;;4.10;;
55987;SDS011;75964;50.930;4.514;2024-02-14T13:51:47;8.13;;;4.43;;
55987;SDS011;75964;50.930;4.514;2024-02-14T13:54:16;6.80;;;3.85;;
55987;SDS011;75964;50.930;4.514;2024-02-14T13:56:46;8.52;;;3.90;;
55987;SDS011;75964;50.930;4.514;2024-02-14T13:59:14;6.97;;;4.18;;
55987;SDS011;75964;50.930;4.514;2024-02-14T14:01:46;6.82;;;4.03;;
55987;SDS011;75964;50.930;4.514;2024-02-14T14:04:12;8.00;;;3.50;;
55987;SDS011;75964;50.930;4.514;2024-02-14T14:06:37;7.57;;;4.22;;
55987;SDS011;75964;50.930;4.514;2024-02-14T14:09:04;8.95;;;4.00;;
55987;SDS011;75964;50.930;4.514;2024-02-14T14:13:59;7.45;;;3.60;;
55987;SDS011;75964;50.930;4.514;2024-02-14T14:16:25;8.50;;;3.53;;
55987;SDS011;75964;50.930;4.514;2024-02-14T14:18:51;7.60;;;3.60;;
55987;SDS011;75964;50.930;4.514;2024-02-14T14:21:17;5.57;;;4.10;;
55987;SDS011;75964;50.930;4.514;2024-02-14T14:23:43;7.05;;;3.50;;
55987;SDS011;75964;50.930;4.514;2024-02-14T14:26:09;7.35;;;3.08;;
55987;SDS011;75964;50.930;4.514;2024-02-14T14:28:35;6.95;;;2.90;;
55987;SDS011;75964;50.930;4.514;2024-02-14T14:31:02;7.22;;;3.15;;
55987;SDS011;75964;50.930;4.514;2024-02-14T14:33:28;5.05;;;2.90;;
55987;SDS011;75964;50.930;4.514;2024-02-14T14:35:54;4.80;;;2.70;;
55987;SDS011;75964;50.930;4.514;2024-02-14T14:38:20;4.20;;;2.85;;
55987;SDS011;75964;50.930;4.514;2024-02-14T14:40:46;9.15;;;3.42;;
55987;SDS011;75964;50.930;4.514;2024-02-14T14:43:13;9.75;;;3.13;;
55987;SDS011;75964;50.930;4.514;2024-02-14T14:45:39;9.88;;;2.88;;
55987;SDS011;75964;50.930;4.514;2024-02-14T14:48:06;8.25;;;3.15;;
55987;SDS011;75964;50.930;4.514;2024-02-14T14:50:33;7.55;;;2.95;;